• Join FlightAware (Why Join?)
  • Login
  • US Flag 
06:51PM EDT


 

Airport Tracker/Info


-or-


 

Live Flight TrackerFlight Track Log ✈ ASQ5858 ✈ 24-Apr-2013 ✈ KBUF - KORD

Flight Track Log - Related Links

Times and Time Zones

All times are in EDT time to prevent confusion due to time zone crossing. See the ASQ5858 flight status page for this flight to view local times or setup timezone preferences in your user account.

Time Position Orientation Groundspeed Altitude Reporting Facility
EDT Latitude Longitude Course Direction KTS MPH feet Rate Location/Type
10:36AM 42.9167 -78.7500 270° West 163 188 1,500  Level Buffalo TRACON
10:37AM 42.9167 -78.8167 270° West 205 236 3,800 1,980 Climbing Buffalo TRACON
10:38AM 42.9667 -78.8833 316° Northwest 262 302 5,500 2,040 Climbing Buffalo TRACON
10:39AM 42.9833 -78.9500 289° West 250 288 7,700 2,100 Climbing Buffalo TRACON
10:40AM 42.9833 -79.0500 270° West 240 276 9,700 1,260 Climbing Buffalo TRACON
10:41AM 43.0000 -79.1667 281° West 303 349 10,600 1,020 Climbing Buffalo TRACON
10:42AM 42.9667 -79.2876 270° West  Level FlightAware Approximate
10:42AM 43.0000 -79.2667 270° West 319 367 11,700  Level Buffalo TRACON
10:43AM 42.9833 -79.3667 257° West 320 368 13,000 1,320 Climbing Toronto Center
10:44AM 43.0000 -79.5000 280° West 320 368 14,400 1,440 Climbing Toronto Center
10:45AM 43.0000 -79.6167 270° West 330 380 15,900 1,380 Climbing Toronto Center
10:46AM 43.0000 -79.7500 270° West 330 380 17,200 1,440 Climbing Toronto Center
10:47AM 43.0000 -79.8667 270° West 320 368 18,800 1,500 Climbing Toronto Center
10:48AM 43.0000 -79.9833 270° West 320 368 20,200 1,320 Climbing Toronto Center
10:49AM 43.0167 -80.1167 280° West 320 368 21,500 1,320 Climbing Toronto Center
10:50AM 43.0167 -80.2333 270° West 320 368 22,900 1,380 Climbing Toronto Center
10:51AM 43.0167 -80.3667 270° West 320 368 24,300 1,440 Climbing Toronto Center
10:52AM 43.0167 -80.4833 270° West 320 368 25,800 1,380 Climbing Toronto Center
10:53AM 43.0167 -80.5833 270° West 310 357 27,100 1,320 Climbing Toronto Center
10:54AM 43.0333 -80.7000 281° West 310 357 28,500 1,320 Climbing Toronto Center
10:55AM 43.0167 -80.8167 259° West 300 345 29,800 1,380 Climbing Toronto Center
10:56AM 43.0167 -80.9333 270° West 290 334 31,300 1,380 Climbing Toronto Center
10:57AM 43.0167 -81.0500 270° West 290 334 32,600 1,260 Climbing Toronto Center
10:58AM 43.0167 -81.1333 270° West 280 322 33,900 1,320 Climbing Toronto Center
10:59AM 43.0167 -81.2500 270° West 260 299 35,300 1,020 Climbing Toronto Center
11:00AM 43.0167 -81.3500 270° West 250 288 36,000 300 Climbing Toronto Center
11:01AM 43.0167 -81.4333 270° West 260 299 36,000  Level Toronto Center
11:02AM 43.0167 -81.5500 270° West 280 322 36,000  Level Toronto Center
11:03AM 43.0167 -81.6667 270° West 290 334 36,000  Level Toronto Center
11:04AM 43.0167 -81.7833 270° West 310 357 36,000  Level Toronto Center
11:05AM 43.0167 -81.8833 270° West 320 368 36,000  Level Toronto Center
11:06AM 43.0000 -82.0333 261° West 330 380 36,000  Level Toronto Center
11:07AM 43.0000 -82.1667 270° West 330 380 36,000  Level Toronto Center
11:08AM 43.0000 -82.2833 270° West 330 380 36,000  Level Toronto Center
11:09AM 43.0000 -82.4167 270° West 330 380 36,000  Level Toronto Center
11:10AM 43.0000 -82.5333 270° West 330 380 36,000 -300 Level Toronto Center
11:11AM 42.9833 -82.6500 259° West 330 380 35,500 -660 Descending Toronto Center
11:12AM 43.0006 -82.7492 283° West 331 381 34,900 -900 Descending Cleveland Center
11:13AM 42.9958 -82.8825 267° West 331 381 34,000 -900 Descending Cleveland Center
11:14AM 42.9911 -83.0128 267° West 343 395 33,100 -960 Descending Cleveland Center
11:15AM 42.9861 -83.1461 267° West 349 402 32,100 -600 Descending Cleveland Center
11:16AM 42.9831 -83.2794 268° West 354 407 32,000 -60 Descending Cleveland Center
11:17AM 42.9778 -83.4125 267° West 354 407 32,000  Level Cleveland Center
11:18AM 42.9725 -83.5456 267° West 354 407 32,000  Level Cleveland Center
11:19AM 42.9667 -83.6789 267° West 354 407 32,000  Level Cleveland Center
11:20AM 42.9611 -83.8089 267° West 349 402 32,000  Level Cleveland Center
11:21AM 42.9472 -83.9303 261° West 344 396 32,000  Level Cleveland Center
11:22AM 42.9350 -84.0600 263° West 344 396 32,000  Level Cleveland Center
11:23AM 42.9203 -84.1983 262° West 349 402 32,000  Level Cleveland Center
11:25AM 42.9019 -84.4147 263° West 344 396 32,000  Level Chicago Center
11:26AM 42.8881 -84.5456 262° West 348 400 32,000  Level Chicago Center
11:27AM 42.8744 -84.6753 262° West 348 400 32,000  Level Chicago Center
11:28AM 42.8583 -84.8319 262° West 349 402 32,000  Level Chicago Center
11:29AM 42.8447 -84.9625 262° West 349 402 32,000  Level Chicago Center
11:30AM 42.8308 -85.0922 262° West 347 399 32,000  Level Chicago Center
11:31AM 42.8167 -85.2242 262° West 352 405 32,000 -540 Level Chicago Center
11:32AM 42.8025 -85.3550 262° West 349 402 30,900 -1,260 Descending Chicago Center
11:33AM 42.7878 -85.4875 261° West 352 405 29,500 -1,380 Descending Chicago Center
11:34AM 42.7678 -85.6067 257° West 326 375 28,100 -1,500 Descending Chicago Center
11:35AM 42.7464 -85.7211 256° West 312 359 26,500 -1,800 Descending Chicago Center
11:36AM 42.7228 -85.8506 256° West 296 341 24,400 -1,860 Descending Chicago Center
11:37AM 42.7044 -85.9567 257° West 287 330 22,700 -1,740 Descending Chicago Center
11:38AM 42.6822 -86.0753 256° West 315 362 20,900 -1,320 Descending Chicago Center
11:39AM 42.6614 -86.1889 256° West 312 359 20,000 -480 Descending Chicago Center
11:40AM 42.6403 -86.3022 256° West 310 357 20,000 -180 Level Chicago Center
11:41AM 42.6197 -86.4114 256° West 302 348 19,700 -1,200 Descending Chicago Center
11:42AM 42.5981 -86.5253 256° West 309 356 17,600 -2,220 Descending Chicago Center
11:43AM 42.5717 -86.6661 256° West 319 367 15,200 -2,280 Descending Chicago Center
11:44AM 42.5475 -86.7778 254° West 309 356 13,000 -2,100 Descending Chicago Center
11:45AM 42.5169 -86.8856 249° West 307 353 10,900 -1,500 Descending Chicago Center
11:46AM 42.4875 -86.9978 250° West 315 362 9,900 -480 Descending Chicago Center
11:47AM 42.4581 -87.1017 249° West 299 344 10,000 -300 Climbing Chicago Center
11:48AM 42.4303 -87.2039 250° West 290 334 9,300 -720 Descending Chicago Center
11:49AM 42.4036 -87.2994 249° West 274 315 8,600 -900 Descending Chicago Center
11:50AM 42.3719 -87.4133 249° West 272 313 7,500 -960 Descending Chicago Center
11:51AM 42.3469 -87.5050 250° West 260 299 6,700 -720 Descending Chicago Center
11:52AM 42.3083 -87.5747 233° Southwest 268 308 6,100 -420 Descending Chicago Center
11:53AM 42.2172 -87.5633 175° South 273 314 5,900 -540 Descending Chicago Center
11:54AM 42.1431 -87.5567 176° South 268 308 5,000 -900 Descending Chicago Center
11:55AM 42.1000 -87.5333 158° South 272 313 4,500 -660 Descending Chicago TRACON
11:56AM 42.0667 -87.4500 118° Southeast 256 295 4,000 -300 Descending Chicago TRACON
11:57AM 42.0333 -87.4000 132° Southeast 244 281 4,000  Level Chicago TRACON
11:58AM 42.0000 -87.4833 242° Southwest 213 245 4,000  Level Chicago TRACON
11:59AM 42.0000 -87.5500 270° West 205 236 4,000  Level Chicago TRACON
12:00PM 42.0000 -87.6333 270° West 207 238 4,000 -240 Level Chicago TRACON
12:01PM 42.0000 -87.7167 270° West 207 238 3,500 -780 Descending Chicago TRACON
12:02PM 42.0000 -87.7833 270° West 207 238 2,500 -1,020 Descending Chicago TRACON
12:03PM 42.0000 -87.8333 270° West 141 162 1,600 -840 Descending Chicago TRACON
12:04PM 42.0000 -87.8833 270° West 136 157 900 -720 Descending Chicago TRACON
12:06PM 41.9817 -87.9067 217° Southwest  Level Estimated